Time;durP1;ratioP1;P1;durP2;ratioP2;P2;SDS_P1;SDS_P2;PMS_P1;PMS_P2;Temp;Humidity;BMP_temperature;BMP_pressure;BME280_temperature;BME280_humidity;BME280_pressure;Samples;Min_cycle;Max_cycle;Signal;HPM_P1;HPM_P2
2023/11/29 00:02:13;;;;;;;10.57;5.05;;;;;;;-0.26;100.00;99518.47;5163840;28;20022;-72
2023/11/29 00:04:43;;;;;;;8.23;4.60;;;;;;;-0.28;100.00;99519.34;5163736;28;20065;-72
2023/11/29 00:07:14;;;;;;;11.48;5.10;;;;;;;-0.30;100.00;99510.81;5164667;28;20084;-71
2023/11/29 00:09:46;;;;;;;9.07;4.93;;;;;;;-0.21;100.00;99506.44;5159370;28;21017;-72
2023/11/29 00:12:16;;;;;;;8.95;5.18;;;;;;;-0.21;100.00;99497.91;5160450;28;20030;-72
2023/11/29 00:14:46;;;;;;;10.88;5.63;;;;;;;-0.34;100.00;99497.16;5163708;28;20029;-72
2023/11/29 00:17:16;;;;;;;10.05;5.38;;;;;;;-0.37;100.00;99483.50;5164010;28;20030;-71
2023/11/29 00:19:47;;;;;;;10.52;5.65;;;;;;;-0.34;100.00;99488.59;5162746;28;20033;-72
2023/11/29 00:22:17;;;;;;;11.13;5.65;;;;;;;-0.26;100.00;99489.38;5163454;28;20117;-72
2023/11/29 00:24:48;;;;;;;10.02;5.53;;;;;;;-0.43;100.00;99493.81;5163523;28;20037;-71
2023/11/29 00:27:18;;;;;;;10.82;5.40;;;;;;;-0.33;100.00;99485.19;5158023;28;20061;-72
2023/11/29 00:29:48;;;;;;;11.02;5.47;;;;;;;-0.21;100.00;99485.06;5163199;28;20022;-72
2023/11/29 00:32:19;;;;;;;12.10;5.38;;;;;;;-0.23;100.00;99481.66;5165641;28;20075;-72
2023/11/29 00:34:49;;;;;;;9.77;4.93;;;;;;;-0.28;100.00;99471.44;5162374;28;20018;-72
2023/11/29 00:37:19;;;;;;;10.35;5.30;;;;;;;-0.23;100.00;99467.09;5166842;28;20076;-72
2023/11/29 00:39:50;;;;;;;11.98;4.82;;;;;;;-0.15;100.00;99462.75;5146163;28;20714;-72
2023/11/29 00:42:20;;;;;;;10.75;5.50;;;;;;;-0.17;100.00;99453.34;5186767;22;20508;-73
2023/11/29 00:44:52;;;;;;;10.50;5.13;;;;;;;-0.12;100.00;99452.44;5162628;28;20032;-73
2023/11/29 00:47:22;;;;;;;9.70;5.43;;;;;;;-0.12;100.00;99444.75;5160509;28;20022;-72
2023/11/29 00:49:53;;;;;;;12.02;5.78;;;;;;;-0.06;100.00;99438.69;5160239;28;20531;-72
2023/11/29 00:52:23;;;;;;;11.98;5.70;;;;;;;-0.06;100.00;99438.69;5166741;28;20052;-73
2023/11/29 00:54:53;;;;;;;10.23;4.90;;;;;;;0.12;100.00;99431.59;5159031;28;20053;-72
2023/11/29 00:57:24;;;;;;;10.48;4.90;;;;;;;0.16;100.00;99418.72;5165703;28;20423;-67
2023/11/29 00:59:54;;;;;;;11.25;5.13;;;;;;;0.14;100.00;99406.75;5164493;28;20088;-72
2023/11/29 01:02:24;;;;;;;8.77;4.68;;;;;;;0.22;100.00;99407.50;5164413;28;20084;-68
2023/11/29 01:04:55;;;;;;;10.77;5.20;;;;;;;0.30;100.00;99403.09;5164823;28;20030;-72
2023/11/29 01:07:25;;;;;;;8.82;4.85;;;;;;;0.33;100.00;99403.94;5158411;28;20077;-69
2023/11/29 01:09:56;;;;;;;10.60;5.65;;;;;;;0.21;100.00;99403.25;5163258;28;20638;-72
2023/11/29 01:12:26;;;;;;;11.55;5.13;;;;;;;0.34;100.00;99399.63;5165102;28;20026;-70
2023/11/29 01:14:57;;;;;;;10.77;5.28;;;;;;;0.15;100.00;99411.88;5164613;28;20049;-73
2023/11/29 01:17:27;;;;;;;8.80;4.95;;;;;;;0.17;100.00;99412.69;5164759;28;20048;-71
2023/11/29 01:19:58;;;;;;;9.48;5.20;;;;;;;0.22;100.00;99402.38;5161747;28;20030;-72
2023/11/29 01:22:28;;;;;;;8.90;4.82;;;;;;;0.28;100.00;99402.28;5165441;28;20080;-69
2023/11/29 01:24:58;;;;;;;12.05;5.35;;;;;;;0.36;100.00;99405.63;5159972;28;20053;-72
2023/11/29 01:27:30;;;;;;;8.88;5.10;;;;;;;0.43;100.00;99405.50;5160408;28;20023;-71
2023/11/29 01:30:03;;;;;;;8.82;5.15;;;;;;;0.44;100.00;99404.63;5166588;28;20050;-73
2023/11/29 01:32:33;;;;;;;9.05;4.95;;;;;;;0.45;100.00;99397.75;5164619;28;20022;-73
2023/11/29 01:35:04;;;;;;;9.77;5.20;;;;;;;0.54;100.00;99400.22;5168703;28;20030;-72
2023/11/29 01:37:34;;;;;;;11.57;5.88;;;;;;;0.44;100.00;99390.94;5168501;28;20451;-72
2023/11/29 01:40:07;;;;;;;10.65;4.80;;;;;;;0.35;100.00;99396.22;5170803;28;20073;-72
2023/11/29 01:42:37;;;;;;;8.85;4.72;;;;;;;0.51;100.00;99395.09;5165009;28;20038;-72
2023/11/29 01:45:08;;;;;;;8.30;4.65;;;;;;;0.62;100.00;99385.50;5169576;28;20030;-73
2023/11/29 01:47:39;;;;;;;9.20;4.65;;;;;;;0.44;100.00;99391.78;5168340;28;20030;-73
2023/11/29 01:50:10;;;;;;;10.70;5.45;;;;;;;0.55;100.00;99383.91;5170838;28;20554;-72
2023/11/29 01:52:42;;;;;;;10.93;5.35;;;;;;;0.50;100.00;99368.56;5170625;28;20025;-73
2023/11/29 01:55:18;;;;;;;10.07;5.32;;;;;;;0.58;100.00;99353.88;5173585;28;20064;-72
2023/11/29 01:57:49;;;;;;;10.57;5.45;;;;;;;0.62;100.00;99349.53;5165782;28;20599;-71
2023/11/29 02:00:20;;;;;;;10.85;5.32;;;;;;;0.61;100.00;99348.69;5170778;28;20036;-73
2023/11/29 02:02:51;;;;;;;11.25;5.05;;;;;;;0.61;100.00;99333.28;5169257;28;20041;-72
2023/11/29 02:05:21;;;;;;;9.18;5.13;;;;;;;0.70;100.00;99329.72;5171144;28;20022;-72
2023/11/29 02:07:52;;;;;;;10.27;5.03;;;;;;;0.75;100.00;99320.19;5168577;28;20073;-72
2023/11/29 02:10:23;;;;;;;10.63;5.13;;;;;;;0.81;100.00;99320.94;5166930;28;20014;-73
2023/11/29 02:12:53;;;;;;;8.98;5.10;;;;;;;0.77;100.00;99318.44;5167245;28;20037;-72
2023/11/29 02:15:23;;;;;;;9.90;5.30;;;;;;;0.85;99.33;99319.16;5169711;28;20025;-73
2023/11/29 02:17:54;;;;;;;10.95;5.22;;;;;;;0.82;99.78;99299.50;5168488;28;20019;-72
2023/11/29 02:20:26;;;;;;;9.98;4.93;;;;;;;0.76;100.00;99294.44;5162538;28;20022;-68
2023/11/29 02:23:22;;;;;;;8.75;5.00;;;;;;;0.72;100.00;99290.25;5167196;28;20026;-72
2023/11/29 02:25:54;;;;;;;9.88;5.05;;;;;;;0.85;100.00;99289.16;5161867;28;20125;-73
2023/11/29 02:28:24;;;;;;;9.30;5.20;;;;;;;0.81;100.00;99295.25;5169738;28;20030;-70
2023/11/29 02:30:54;;;;;;;9.82;5.55;;;;;;;0.72;100.00;99297.94;5160817;28;20053;-72
2023/11/29 02:33:25;;;;;;;10.70;5.70;;;;;;;0.80;100.00;99287.53;5163617;28;20072;-70
2023/11/29 02:35:55;;;;;;;10.57;5.32;;;;;;;0.75;100.00;99289.34;5166550;28;20019;-73
2023/11/29 02:38:26;;;;;;;9.57;5.32;;;;;;;0.62;100.00;99291.28;5168390;28;20036;-73
2023/11/29 02:40:56;;;;;;;11.98;5.30;;;;;;;0.67;100.00;99289.47;5167637;28;20392;-72
2023/11/29 02:43:27;;;;;;;11.07;5.43;;;;;;;0.68;100.00;99277.47;5168018;28;20029;-73
2023/11/29 02:45:57;;;;;;;10.18;5.80;;;;;;;0.63;100.00;99277.56;5166680;28;20472;-73
2023/11/29 02:48:27;;;;;;;9.77;5.80;;;;;;;0.62;100.00;99278.44;5168475;28;20053;-72
2023/11/29 02:50:58;;;;;;;10.23;5.05;;;;;;;0.68;100.00;99268.03;5162514;28;20030;-73
2023/11/29 02:53:28;;;;;;;10.25;5.30;;;;;;;0.62;100.00;99263.03;5168784;28;20021;-70
2023/11/29 02:55:58;;;;;;;9.20;4.85;;;;;;;0.71;100.00;99254.31;5170370;28;20030;-73
2023/11/29 02:58:29;;;;;;;9.60;5.43;;;;;;;0.76;100.00;99245.59;5168452;28;20026;-71
2023/11/29 03:00:59;;;;;;;11.40;5.47;;;;;;;0.78;100.00;99238.75;5168089;28;20041;-72
2023/11/29 03:03:29;;;;;;;11.43;5.53;;;;;;;0.90;100.00;99246.22;5168047;28;20030;-73
2023/11/29 03:06:00;;;;;;;9.52;4.80;;;;;;;0.75;100.00;99243.91;5164941;28;20044;-73
2023/11/29 03:08:30;;;;;;;10.75;5.22;;;;;;;0.78;100.00;99245.59;5169546;28;20029;-69
2023/11/29 03:11:01;;;;;;;8.70;5.00;;;;;;;0.80;100.00;99242.13;5167688;28;20069;-73
2023/11/29 03:13:32;;;;;;;11.80;5.32;;;;;;;0.74;100.00;99228.53;5166232;28;20033;-72
2023/11/29 03:16:02;;;;;;;10.32;5.15;;;;;;;0.73;100.00;99230.25;5162624;28;20811;-73
2023/11/29 03:18:33;;;;;;;10.07;5.30;;;;;;;0.68;100.00;99231.19;5167165;28;20057;-72
2023/11/29 03:21:03;;;;;;;9.32;5.20;;;;;;;0.72;100.00;99223.41;5162723;28;20072;-71
2023/11/29 03:23:33;;;;;;;11.85;5.65;;;;;;;0.72;100.00;99228.56;5166560;28;20117;-73
2023/11/29 03:26:04;;;;;;;9.73;5.45;;;;;;;0.61;100.00;99216.78;5167995;28;20081;-73
2023/11/29 03:28:35;;;;;;;9.88;5.70;;;;;;;0.70;100.00;99226.91;5168368;28;20034;-73
2023/11/29 03:31:05;;;;;;;9.48;4.95;;;;;;;0.71;100.00;99210.59;5164935;28;20037;-72
2023/11/29 03:33:35;;;;;;;9.77;5.50;;;;;;;0.74;100.00;99216.53;5165422;28;20036;-72
2023/11/29 03:36:07;;;;;;;10.27;5.55;;;;;;;0.60;100.00;99208.25;5167740;28;20038;-73
2023/11/29 03:38:37;;;;;;;12.80;5.80;;;;;;;0.57;100.00;99218.53;5168403;28;20491;-73
2023/11/29 03:41:08;;;;;;;10.48;5.57;;;;;;;0.72;100.00;99202.84;5168060;28;20036;-73
2023/11/29 03:43:38;;;;;;;10.65;5.35;;;;;;;0.74;100.00;99211.38;5165877;28;20029;-73
2023/11/29 03:46:08;;;;;;;10.43;5.53;;;;;;;0.75;100.00;99197.66;5168585;28;20080;-73
2023/11/29 03:48:38;;;;;;;12.98;5.60;;;;;;;0.58;100.00;99188.56;5164207;28;20465;-73
2023/11/29 03:51:09;;;;;;;10.15;5.47;;;;;;;0.64;100.00;99184.16;5165239;28;20030;-73
2023/11/29 03:53:40;;;;;;;11.15;5.93;;;;;;;0.65;100.00;99185.00;5162853;28;20511;-72
2023/11/29 03:56:10;;;;;;;13.50;5.70;;;;;;;0.46;100.00;99184.50;5163618;28;20109;-72
2023/11/29 03:58:40;;;;;;;10.30;5.95;;;;;;;0.54;100.00;99172.34;5167471;28;20013;-72
2023/11/29 04:01:10;;;;;;;12.40;5.88;;;;;;;0.62;100.00;99180.78;5162947;28;20492;-72
2023/11/29 04:03:41;;;;;;;10.23;5.60;;;;;;;0.61;100.00;99167.94;5165984;28;20029;-68
2023/11/29 04:06:23;;;;;;;11.88;6.07;;;;;;;0.60;100.00;99161.97;5169848;28;20030;-73
2023/11/29 04:08:54;;;;;;;10.95;6.07;;;;;;;0.69;100.00;99164.34;5164211;28;20200;-73
2023/11/29 04:11:25;;;;;;;12.73;5.90;;;;;;;0.66;100.00;99167.00;5165997;28;20428;-72
2023/11/29 04:13:55;;;;;;;11.27;5.95;;;;;;;0.59;100.00;99167.97;5162754;28;20068;-72
2023/11/29 04:16:27;;;;;;;11.25;6.57;;;;;;;0.63;100.00;99161.06;5165171;28;20057;-73
2023/11/29 04:18:58;;;;;;;12.73;6.07;;;;;;;0.62;100.00;99164.50;5168620;28;20367;-72
2023/11/29 04:21:32;;;;;;;14.10;6.72;;;;;;;0.65;100.00;99167.00;5169112;28;20507;-70
2023/11/29 04:24:03;;;;;;;14.02;6.50;;;;;;;0.65;100.00;99164.44;5162280;28;20504;-72
2023/11/29 04:26:35;;;;;;;11.90;6.60;;;;;;;0.53;100.00;99160.38;5159221;28;20045;-73
2023/11/29 04:29:08;;;;;;;11.07;6.50;;;;;;;0.56;100.00;99149.22;5166901;28;20418;-73
2023/11/29 04:31:39;;;;;;;12.52;6.07;;;;;;;0.55;100.00;99143.22;5163107;28;20037;-72
2023/11/29 04:34:09;;;;;;;13.32;6.47;;;;;;;0.52;100.00;99145.84;5163357;28;20025;-73
2023/11/29 04:36:40;;;;;;;12.18;6.63;;;;;;;0.56;100.00;99134.63;5166961;28;20526;-73
2023/11/29 04:39:12;;;;;;;14.55;6.85;;;;;;;0.43;100.00;99133.19;5165413;28;20120;-71
2023/11/29 04:41:43;;;;;;;12.98;6.72;;;;;;;0.55;100.00;99130.38;5162545;28;20080;-70
2023/11/29 04:44:14;;;;;;;13.45;6.95;;;;;;;0.51;100.00;99127.88;5168795;28;20025;-73
2023/11/29 04:46:44;;;;;;;14.00;7.55;;;;;;;0.70;100.00;99132.63;5163853;28;20559;-71
2023/11/29 04:49:14;;;;;;;16.05;6.30;;;;;;;0.60;100.00;99128.56;5166063;28;20067;-69
2023/11/29 04:51:45;;;;;;;14.52;6.07;;;;;;;0.58;100.00;99124.34;5163980;28;20034;-69
2023/11/29 04:54:17;;;;;;;13.18;6.53;;;;;;;0.65;100.00;99124.19;5164344;28;20026;-71
2023/11/29 04:56:48;;;;;;;13.32;6.10;;;;;;;0.59;100.00;99118.31;5164229;28;20681;-71
2023/11/29 04:59:18;;;;;;;11.10;6.38;;;;;;;0.56;100.00;99113.22;5162844;28;20037;-72
2023/11/29 05:01:49;;;;;;;13.40;6.35;;;;;;;0.66;100.00;99112.16;5165395;28;20036;-70
2023/11/29 05:04:19;;;;;;;12.40;6.22;;;;;;;0.64;100.00;99101.94;5163433;28;20030;-72
2023/11/29 05:06:50;;;;;;;12.70;5.82;;;;;;;0.56;100.00;99111.50;5165658;28;20022;-72
2023/11/29 05:09:21;;;;;;;14.07;6.53;;;;;;;0.64;100.00;99116.50;5162239;28;20176;-73
2023/11/29 05:11:51;;;;;;;11.60;5.55;;;;;;;0.73;100.00;99112.00;5158922;28;20508;-70
2023/11/29 05:14:22;;;;;;;11.63;5.82;;;;;;;0.60;100.00;99102.00;5166710;28;20381;-72
2023/11/29 05:16:52;;;;;;;10.75;6.40;;;;;;;0.79;100.00;99101.63;5161525;28;20105;-72
2023/11/29 05:19:22;;;;;;;10.10;5.47;;;;;;;0.78;100.00;99094.78;5166920;28;20511;-73
2023/11/29 05:21:53;;;;;;;11.05;5.50;;;;;;;0.74;100.00;99092.31;5164247;28;20523;-70
2023/11/29 05:24:23;;;;;;;9.70;4.95;;;;;;;0.78;100.00;99094.78;5169307;28;20526;-72
2023/11/29 05:26:54;;;;;;;9.77;4.88;;;;;;;0.75;100.00;99094.84;5165556;28;20164;-72
2023/11/29 05:29:24;;;;;;;9.90;4.97;;;;;;;0.82;100.00;99090.41;5163125;28;20470;-70
2023/11/29 05:31:55;;;;;;;11.40;5.82;;;;;;;0.87;100.00;99081.75;5164899;28;20038;-71
2023/11/29 05:34:25;;;;;;;9.55;5.05;;;;;;;0.83;100.00;99082.69;5162150;28;20488;-72
2023/11/29 05:36:56;;;;;;;9.00;4.45;;;;;;;0.95;100.00;99077.28;5159690;28;20463;-73
2023/11/29 05:39:26;;;;;;;7.82;4.18;;;;;;;0.88;100.00;99080.84;5161629;28;20053;-72
2023/11/29 05:41:56;;;;;;;10.50;4.80;;;;;;;0.91;100.00;99080.78;5161749;28;20077;-71
2023/11/29 05:44:26;;;;;;;10.15;5.00;;;;;;;0.92;100.00;99079.91;5160777;28;20060;-72
2023/11/29 05:47:03;;;;;;;8.93;4.60;;;;;;;0.84;100.00;99074.09;5163410;28;20027;-71
2023/11/29 05:49:33;;;;;;;9.23;4.93;;;;;;;0.75;100.00;99069.13;5164321;28;20026;-72
2023/11/29 05:52:04;;;;;;;9.80;4.65;;;;;;;0.90;100.00;99067.97;5163958;28;20038;-73
2023/11/29 05:54:34;;;;;;;8.80;4.45;;;;;;;0.82;100.00;99060.44;5162373;28;20028;-72
2023/11/29 05:57:04;;;;;;;11.98;4.80;;;;;;;0.74;100.00;99064.88;5164153;28;20045;-72
2023/11/29 05:59:36;;;;;;;9.07;4.68;;;;;;;0.75;100.00;99068.31;5163817;28;20038;-68
2023/11/29 06:02:06;;;;;;;7.97;4.55;;;;;;;0.65;100.00;99065.06;5159494;28;20754;-72
2023/11/29 06:04:37;;;;;;;10.18;4.35;;;;;;;0.74;100.00;99061.47;5158404;28;20026;-73
2023/11/29 06:07:07;;;;;;;9.23;4.50;;;;;;;0.71;100.00;99067.50;5158858;28;20061;-73
2023/11/29 06:09:39;;;;;;;9.02;4.95;;;;;;;0.72;100.00;99052.94;5164423;28;20695;-72
2023/11/29 06:12:09;;;;;;;8.85;4.78;;;;;;;0.69;100.00;99051.28;5160290;28;20285;-72
2023/11/29 06:14:39;;;;;;;8.45;4.18;;;;;;;0.63;100.00;99043.69;5163230;28;20037;-71
2023/11/29 06:17:10;;;;;;;11.43;5.30;;;;;;;0.56;100.00;99044.69;5166501;28;20037;-72
2023/11/29 06:19:40;;;;;;;9.25;4.80;;;;;;;0.56;100.00;99042.13;5163505;28;20538;-72
2023/11/29 06:22:11;;;;;;;11.10;4.57;;;;;;;0.53;100.00;99044.75;5162327;28;20109;-72
2023/11/29 06:24:42;;;;;;;9.38;4.70;;;;;;;0.54;100.00;99054.16;5164058;28;20088;-72
2023/11/29 06:27:12;;;;;;;10.05;4.57;;;;;;;0.55;100.00;99053.28;5163162;28;20422;-72
2023/11/29 06:29:42;;;;;;;10.32;4.60;;;;;;;0.56;100.00;99049.81;5161759;28;20030;-72
2023/11/29 06:32:13;;;;;;;9.85;5.15;;;;;;;0.66;100.00;99058.19;5145716;28;20690;-72
2023/11/29 06:34:44;;;;;;;15.00;5.72;;;;;;;0.65;100.00;99056.50;5149944;28;20045;-68
2023/11/29 06:37:14;;;;;;;10.13;5.05;;;;;;;0.56;100.00;99052.41;5157906;28;20026;-70
2023/11/29 06:39:46;;;;;;;10.43;5.40;;;;;;;0.46;100.00;99050.91;5157801;28;20334;-68
2023/11/29 06:42:17;;;;;;;8.45;4.57;;;;;;;0.59;100.00;99036.09;5140714;28;20303;-69
2023/11/29 06:44:48;;;;;;;9.38;4.70;;;;;;;0.60;100.00;99040.34;5160752;28;20756;-72
2023/11/29 06:47:18;;;;;;;11.45;5.32;;;;;;;0.61;100.00;99042.91;5165421;28;20504;-71
2023/11/29 06:49:49;;;;;;;10.95;4.97;;;;;;;0.61;100.00;99035.19;5162738;28;20132;-71
2023/11/29 06:52:19;;;;;;;7.28;4.20;;;;;;;0.64;100.00;99029.13;5161011;28;20026;-72
2023/11/29 06:54:49;;;;;;;9.52;5.18;;;;;;;0.59;100.00;99025.81;5162544;28;20113;-72
2023/11/29 06:57:20;;;;;;;12.48;5.05;;;;;;;0.62;100.00;99031.72;5161582;28;20014;-71
2023/11/29 06:59:50;;;;;;;11.05;5.20;;;;;;;0.64;100.00;99031.69;5162407;28;20014;-72
2023/11/29 07:02:21;;;;;;;10.60;5.18;;;;;;;0.72;100.00;99020.38;5161248;28;20120;-72
2023/11/29 07:04:51;;;;;;;10.25;5.50;;;;;;;0.65;100.00;99029.09;5162187;28;20026;-72
2023/11/29 07:07:23;;;;;;;10.27;5.07;;;;;;;0.65;100.00;99034.22;5162300;28;20041;-72
2023/11/29 07:09:53;;;;;;;9.93;4.75;;;;;;;0.62;100.00;99024.03;5162918;28;20440;-72
2023/11/29 07:12:23;;;;;;;8.85;4.43;;;;;;;0.73;100.00;99019.47;5169065;28;20077;-72
2023/11/29 07:14:53;;;;;;;8.30;4.75;;;;;;;0.66;100.00;99017.94;5162919;28;20471;-72
2023/11/29 07:17:24;;;;;;;12.85;5.03;;;;;;;0.85;100.00;99018.38;5163987;28;20309;-68
2023/11/29 07:19:55;;;;;;;10.00;5.20;;;;;;;0.92;100.00;99014.81;5167386;28;20036;-72
2023/11/29 07:22:25;;;;;;;7.68;4.82;;;;;;;0.86;100.00;99022.66;5162492;28;20081;-71
2023/11/29 07:24:56;;;;;;;12.63;4.57;;;;;;;0.83;100.00;99025.28;5164827;28;20030;-71
2023/11/29 07:27:27;;;;;;;8.65;4.72;;;;;;;0.79;100.00;99028.78;5165356;28;20026;-72
2023/11/29 07:29:57;;;;;;;10.73;4.93;;;;;;;0.84;100.00;99032.97;5166794;28;20076;-72
2023/11/29 07:32:27;;;;;;;8.70;4.70;;;;;;;0.95;100.00;99030.16;5165580;28;20023;-72
2023/11/29 07:34:58;;;;;;;11.32;5.05;;;;;;;0.86;100.00;99031.19;5165503;28;20104;-72
2023/11/29 07:37:28;;;;;;;11.05;5.57;;;;;;;0.89;100.00;99038.84;5166622;28;20502;-71
2023/11/29 07:39:58;;;;;;;8.48;4.68;;;;;;;0.98;100.00;99035.22;5162796;28;20022;-71
2023/11/29 07:42:28;;;;;;;10.32;4.97;;;;;;;1.07;100.00;99046.16;5164150;28;20042;-69
2023/11/29 07:44:59;;;;;;;9.10;4.93;;;;;;;1.11;100.00;99045.22;5165891;28;20026;-72
2023/11/29 07:47:29;;;;;;;10.68;5.72;;;;;;;1.17;100.00;99042.50;5166727;28;20506;-72
2023/11/29 07:49:59;;;;;;;8.77;4.63;;;;;;;1.35;100.00;99036.06;5164122;28;20038;-72
2023/11/29 07:52:30;;;;;;;12.13;4.97;;;;;;;1.50;100.00;99031.41;5164181;28;20503;-70
2023/11/29 07:55:00;;;;;;;10.55;4.80;;;;;;;1.50;99.25;99027.97;5164108;28;20070;-72
2023/11/29 07:57:31;;;;;;;10.68;4.95;;;;;;;1.89;98.38;99030.41;5164008;28;20028;-72
2023/11/29 08:00:11;;;;;;;7.78;3.97;;;;;;;2.42;94.61;99027.25;5164886;28;20022;-72
2023/11/29 08:02:41;;;;;;;7.28;3.97;;;;;;;2.43;93.46;99023.78;5162696;28;20037;-72
2023/11/29 08:05:12;;;;;;;8.43;4.50;;;;;;;2.22;94.45;99019.22;5164292;28;20022;-72
2023/11/29 08:07:42;;;;;;;8.13;4.05;;;;;;;2.13;94.74;99034.94;5162402;28;20499;-72
2023/11/29 08:10:13;;;;;;;7.93;4.50;;;;;;;2.03;95.64;99025.75;5163529;28;20037;-72
2023/11/29 08:12:43;;;;;;;7.68;4.38;;;;;;;1.96;96.81;99021.66;5163052;28;20042;-72
2023/11/29 08:15:14;;;;;;;6.65;3.90;;;;;;;1.71;97.59;99014.59;5165463;28;20255;-72
2023/11/29 08:17:45;;;;;;;8.38;4.75;;;;;;;1.74;98.17;99015.34;5161377;28;20052;-72
2023/11/29 08:20:15;;;;;;;8.77;4.43;;;;;;;1.77;97.42;99012.69;5165049;28;20026;-72
2023/11/29 08:22:45;;;;;;;8.77;4.30;;;;;;;1.95;97.95;99019.94;5164101;28;20036;-72
2023/11/29 08:25:16;;;;;;;8.15;4.10;;;;;;;2.00;97.06;99018.94;5164933;28;20030;-72
2023/11/29 08:27:47;;;;;;;8.98;4.40;;;;;;;2.04;97.55;99020.56;5165904;28;20026;-72
2023/11/29 08:30:18;;;;;;;8.27;4.43;;;;;;;2.15;97.80;99012.56;5165334;28;20022;-70
2023/11/29 08:32:49;;;;;;;9.23;4.38;;;;;;;1.97;96.83;99026.75;5162809;28;20034;-69
2023/11/29 08:35:19;;;;;;;9.00;4.43;;;;;;;2.16;97.37;99027.13;5166190;28;20033;-71
2023/11/29 08:37:50;;;;;;;10.27;4.60;;;;;;;2.38;96.73;99020.50;5163604;28;20369;-72
2023/11/29 08:40:20;;;;;;;8.73;4.30;;;;;;;2.37;96.36;99029.94;5163852;28;20021;-72
2023/11/29 08:42:51;;;;;;;7.43;4.22;;;;;;;2.16;96.03;99034.84;5163918;28;20030;-72
2023/11/29 08:45:21;;;;;;;7.72;4.10;;;;;;;2.15;97.31;99026.25;5170417;28;20034;-72
2023/11/29 08:47:52;;;;;;;10.02;4.70;;;;;;;1.96;98.25;99026.81;5167893;28;20113;-72
2023/11/29 08:50:22;;;;;;;6.65;4.15;;;;;;;2.20;98.16;99032.13;5166778;28;20045;-73
2023/11/29 08:52:53;;;;;;;8.65;4.70;;;;;;;2.18;97.90;99025.34;5168899;28;20018;-72
2023/11/29 08:55:24;;;;;;;8.77;4.13;;;;;;;2.29;96.63;99025.88;5170129;28;20068;-68
2023/11/29 08:57:55;;;;;;;9.07;4.28;;;;;;;2.36;97.04;99028.25;5170073;28;20467;-72
2023/11/29 09:00:25;;;;;;;7.05;4.40;;;;;;;2.40;97.41;99034.19;5165400;28;20110;-71
2023/11/29 09:02:55;;;;;;;6.95;4.07;;;;;;;2.26;97.13;99031.13;5167222;28;20026;-73
2023/11/29 09:05:27;;;;;;;8.57;4.25;;;;;;;2.32;97.26;99036.97;5168961;28;20025;-72
2023/11/29 09:07:57;;;;;;;8.45;4.00;;;;;;;2.25;97.86;99030.28;5169049;28;20095;-72
2023/11/29 09:10:28;;;;;;;8.18;4.00;;;;;;;2.35;97.81;99033.47;5167107;28;20034;-73
2023/11/29 09:12:59;;;;;;;7.78;4.53;;;;;;;2.49;97.19;99015.88;5169120;28;20076;-73
2023/11/29 09:15:29;;;;;;;6.85;4.15;;;;;;;2.47;96.83;99023.66;5169116;28;20022;-71
2023/11/29 09:18:02;;;;;;;7.22;4.43;;;;;;;2.68;97.51;99014.47;5168778;28;20030;-72
2023/11/29 09:20:32;;;;;;;7.53;4.35;;;;;;;2.31;97.00;99021.56;5167184;28;20487;-72
2023/11/29 09:23:04;;;;;;;7.57;4.07;;;;;;;2.32;97.61;99018.09;5169830;28;20076;-73
2023/11/29 09:25:36;;;;;;;6.50;4.13;;;;;;;2.37;98.00;99008.50;5170065;28;20026;-73
2023/11/29 09:28:06;;;;;;;8.80;4.20;;;;;;;2.45;98.31;98997.09;5168532;28;20470;-73
2023/11/29 09:30:36;;;;;;;8.32;4.43;;;;;;;2.42;97.58;99017.78;5166483;28;20134;-73
2023/11/29 09:33:07;;;;;;;8.95;4.57;;;;;;;2.31;97.90;99000.94;5169524;28;20262;-73
2023/11/29 09:35:37;;;;;;;8.15;4.03;;;;;;;2.49;99.09;99003.81;5168678;28;21384;-72
2023/11/29 09:38:08;;;;;;;10.13;4.10;;;;;;;2.55;98.87;99007.97;5169193;28;20110;-73
2023/11/29 09:40:40;;;;;;;8.40;4.10;;;;;;;2.78;99.54;99008.13;5166791;28;20034;-72
2023/11/29 09:43:11;;;;;;;8.82;4.30;;;;;;;2.84;98.10;99005.41;5169638;28;20030;-73
2023/11/29 09:45:43;;;;;;;7.13;4.20;;;;;;;2.81;97.55;99000.31;5168897;28;20415;-73
2023/11/29 09:48:13;;;;;;;8.52;4.47;;;;;;;2.66;97.35;99003.38;5168759;28;20026;-73
2023/11/29 09:50:44;;;;;;;8.90;4.00;;;;;;;2.71;98.14;99002.31;5165161;28;20116;-72
2023/11/29 09:53:14;;;;;;;7.65;4.40;;;;;;;2.76;98.57;99003.03;5171178;28;20175;-70
2023/11/29 09:55:45;;;;;;;7.18;4.40;;;;;;;2.88;97.87;99001.81;5167117;28;20023;-72
2023/11/29 09:58:16;;;;;;;9.63;4.07;;;;;;;2.96;97.19;98987.81;5167423;28;20026;-70
2023/11/29 10:00:46;;;;;;;8.32;4.40;;;;;;;2.99;96.56;98998.03;5167969;28;20040;-69
2023/11/29 10:03:17;;;;;;;8.77;4.60;;;;;;;2.97;97.26;98988.63;5171553;28;20487;-71
2023/11/29 10:05:48;;;;;;;6.47;4.13;;;;;;;3.00;96.70;98991.97;5168049;28;20022;-73
2023/11/29 10:08:19;;;;;;;7.00;4.00;;;;;;;2.85;97.31;98989.84;5168600;28;20128;-71
2023/11/29 10:10:50;;;;;;;8.80;4.20;;;;;;;2.51;97.54;98986.59;5167966;28;20105;-72
2023/11/29 10:13:20;;;;;;;7.32;4.30;;;;;;;2.78;97.99;98997.81;5171590;28;20274;-72
2023/11/29 10:15:51;;;;;;;6.90;4.13;;;;;;;2.71;98.60;98988.59;5167340;28;20041;-73
2023/11/29 10:18:22;;;;;;;9.00;4.13;;;;;;;2.56;98.11;98989.91;5167692;28;20022;-72
2023/11/29 10:20:52;;;;;;;8.60;4.03;;;;;;;2.53;99.20;98974.50;5168711;28;20023;-73
2023/11/29 10:23:24;;;;;;;7.15;4.10;;;;;;;2.70;99.11;98984.31;5170237;28;20100;-73
2023/11/29 10:25:56;;;;;;;7.80;4.43;;;;;;;2.60;99.87;98980.31;5169211;28;20054;-73
2023/11/29 10:28:26;;;;;;;9.23;4.47;;;;;;;2.54;98.98;98978.75;5166306;28;20054;-73
2023/11/29 10:30:57;;;;;;;6.97;4.28;;;;;;;2.53;99.25;98979.66;5169151;28;20085;-73
2023/11/29 10:33:31;;;;;;;7.53;4.10;;;;;;;2.57;99.83;98980.41;5167787;28;20042;-73
2023/11/29 10:36:03;;;;;;;8.48;4.65;;;;;;;2.80;99.26;98976.25;5167771;28;20037;-73
2023/11/29 10:38:39;;;;;;;8.18;4.72;;;;;;;2.80;98.40;98967.66;5166018;28;20014;-70
2023/11/29 10:41:13;;;;;;;7.38;4.40;;;;;;;2.87;99.07;98974.34;5169285;28;20120;-73
2023/11/29 10:43:46;;;;;;;10.52;4.90;;;;;;;2.97;98.62;98961.13;5165747;28;20105;-73
2023/11/29 10:46:28;;;;;;;8.82;4.75;;;;;;;2.88;98.02;98968.28;5169040;28;20058;-72
2023/11/29 10:49:05;;;;;;;8.52;4.50;;;;;;;2.83;98.28;98957.28;5163240;28;20084;-72
2023/11/29 10:51:36;;;;;;;7.53;4.57;;;;;;;2.65;98.68;98963.00;5164461;28;20030;-73
2023/11/29 10:54:09;;;;;;;9.70;4.28;;;;;;;2.61;98.49;98951.06;5170447;28;20514;-72
2023/11/29 10:56:41;;;;;;;7.72;4.63;;;;;;;2.70;98.83;98951.63;5167386;28;20550;-73
2023/11/29 10:59:21;;;;;;;7.65;4.25;;;;;;;2.62;99.25;98948.44;5163299;28;20026;-72
2023/11/29 11:01:55;;;;;;;8.40;4.75;;;;;;;2.46;100.00;98947.22;5165260;28;20053;-73
2023/11/29 11:04:33;;;;;;;10.57;5.20;;;;;;;2.38;100.00;98945.75;5169473;28;20114;-73
2023/11/29 11:07:04;;;;;;;11.77;4.97;;;;;;;2.36;100.00;98935.47;5166647;28;20120;-72
2023/11/29 11:09:36;;;;;;;9.57;5.10;;;;;;;2.37;100.00;98926.84;5164193;28;20025;-73
2023/11/29 11:12:07;;;;;;;8.05;4.80;;;;;;;2.38;100.00;98922.56;5168856;28;20033;-73
2023/11/29 11:14:53;;;;;;;9.30;5.03;;;;;;;2.56;100.00;98922.00;5166875;28;20026;-72
2023/11/29 11:17:23;;;;;;;9.40;4.85;;;;;;;2.56;100.00;98914.28;5164195;28;20018;-69
2023/11/29 11:19:54;;;;;;;8.38;4.47;;;;;;;2.82;100.00;98915.16;5162491;28;20053;-73
2023/11/29 11:22:24;;;;;;;9.27;5.47;;;;;;;2.67;100.00;98925.13;5168225;28;20499;-69
2023/11/29 11:25:03;;;;;;;7.53;4.38;;;;;;;2.83;100.00;98921.19;5167667;28;20030;-73
2023/11/29 11:27:35;;;;;;;8.63;4.53;;;;;;;2.87;100.00;98915.03;5166644;28;20033;-72
2023/11/29 11:30:17;;;;;;;9.20;5.47;;;;;;;2.72;100.00;98918.06;5165656;28;20488;-72
2023/11/29 11:32:51;;;;;;;7.03;4.20;;;;;;;2.80;100.00;98909.22;5164347;28;20065;-72
2023/11/29 11:35:27;;;;;;;7.50;4.68;;;;;;;2.79;100.00;98909.25;5167492;28;20025;-72
2023/11/29 11:37:59;;;;;;;11.05;5.05;;;;;;;2.83;100.00;98901.38;5166703;28;20472;-73
2023/11/29 11:40:32;;;;;;;7.90;4.68;;;;;;;2.83;100.00;98903.13;5164212;28;20279;-72
2023/11/29 11:43:02;;;;;;;8.90;5.22;;;;;;;2.74;100.00;98900.81;5164947;28;20031;-73
2023/11/29 11:45:34;;;;;;;9.25;4.90;;;;;;;2.84;100.00;98904.81;5166282;28;20569;-73
2023/11/29 11:48:05;;;;;;;9.38;5.32;;;;;;;2.81;100.00;98895.41;5164114;28;20037;-73
2023/11/29 11:50:36;;;;;;;9.32;4.57;;;;;;;2.86;100.00;98890.94;5164163;28;20120;-73